createdAt,value
2024-01-05T00:02:14.648Z,2.73
2024-01-05T00:04:47.222Z,3.17
2024-01-05T00:07:15.917Z,2.80
2024-01-05T00:09:43.826Z,2.47
2024-01-05T00:12:11.857Z,3.37
2024-01-05T00:14:39.825Z,2.93
2024-01-05T00:17:07.772Z,3.00
2024-01-05T00:19:35.977Z,2.73
2024-01-05T00:22:05.734Z,2.60
2024-01-05T00:24:33.730Z,2.90
2024-01-05T00:27:01.752Z,2.63
2024-01-05T00:29:30.481Z,2.70
2024-01-05T00:31:58.393Z,3.60
2024-01-05T00:34:26.384Z,2.73
2024-01-05T00:36:54.331Z,2.57
2024-01-05T00:39:23.700Z,3.37
2024-01-05T00:41:51.661Z,2.50
2024-01-05T00:44:19.641Z,2.87
2024-01-05T00:46:47.601Z,2.77
2024-01-05T00:49:15.559Z,3.43
2024-01-05T00:51:43.528Z,2.80
2024-01-05T00:54:11.758Z,2.83
2024-01-05T00:56:42.298Z,3.00
2024-01-05T00:59:10.318Z,2.70
2024-01-05T01:01:38.254Z,3.50
2024-01-05T01:04:06.320Z,2.30
2024-01-05T01:06:34.504Z,2.20
2024-01-05T01:09:02.479Z,3.47
2024-01-05T01:11:30.514Z,2.17
2024-01-05T01:13:59.734Z,3.17
2024-01-05T01:16:27.661Z,2.70
2024-01-05T01:18:55.638Z,2.40
2024-01-05T01:21:23.746Z,2.40
2024-01-05T01:23:52.333Z,3.33
2024-01-05T01:26:22.251Z,2.80
2024-01-05T01:28:51.138Z,2.20
2024-01-05T01:31:20.435Z,2.60
2024-01-05T01:33:49.598Z,2.63
2024-01-05T01:36:18.254Z,2.40
2024-01-05T01:38:48.355Z,2.10
2024-01-05T01:41:17.293Z,2.40
2024-01-05T01:43:50.228Z,2.87
2024-01-05T01:46:22.307Z,2.73
2024-01-05T01:48:50.518Z,2.10
2024-01-05T01:51:18.722Z,2.40
2024-01-05T01:53:47.076Z,2.70
2024-01-05T01:56:15.327Z,2.40
2024-01-05T01:58:44.908Z,2.70
2024-01-05T02:01:13.550Z,2.50
2024-01-05T02:03:43.475Z,2.77
2024-01-05T02:06:11.765Z,3.03
2024-01-05T02:08:40.417Z,2.63
2024-01-05T02:11:08.413Z,3.63
2024-01-05T02:13:36.405Z,2.93
2024-01-05T02:16:04.366Z,2.80
2024-01-05T02:18:34.522Z,3.30
2024-01-05T02:21:08.340Z,3.00
2024-01-05T02:23:37.823Z,3.00
2024-01-05T02:26:06.032Z,2.50
2024-01-05T02:28:39.922Z,2.50
2024-01-05T02:31:07.939Z,2.43
2024-01-05T02:33:36.048Z,2.90
2024-01-05T02:36:04.318Z,2.40
2024-01-05T02:38:32.247Z,2.10
2024-01-05T02:41:02.774Z,2.70
2024-01-05T02:43:30.747Z,3.10
2024-01-05T02:45:58.656Z,2.30
2024-01-05T02:48:26.748Z,2.43
2024-01-05T02:50:54.859Z,2.80
2024-01-05T02:53:22.812Z,3.30
2024-01-05T02:55:50.696Z,3.30
2024-01-05T02:58:20.152Z,3.70
2024-01-05T03:00:48.303Z,2.90
2024-01-05T03:03:16.443Z,4.70
2024-01-05T03:05:44.477Z,2.93
2024-01-05T03:08:13.516Z,2.83
2024-01-05T03:10:41.429Z,2.60
2024-01-05T03:13:09.488Z,3.00
2024-01-05T03:15:39.993Z,2.60
2024-01-05T03:18:08.145Z,2.20
2024-01-05T03:20:36.123Z,2.80
2024-01-05T03:23:04.159Z,2.30
2024-01-05T03:25:32.994Z,3.30
2024-01-05T03:28:02.975Z,2.67
2024-01-05T03:30:30.945Z,2.90
2024-01-05T03:33:00.588Z,2.67
2024-01-05T03:35:29.660Z,2.60
2024-01-05T03:37:58.876Z,2.57
2024-01-05T03:40:26.826Z,3.83
2024-01-05T03:42:54.785Z,1.93
2024-01-05T03:45:22.805Z,2.40
2024-01-05T03:47:50.946Z,2.13
2024-01-05T03:50:20.563Z,2.60
2024-01-05T03:52:48.613Z,2.33
2024-01-05T03:55:16.559Z,3.00
2024-01-05T03:57:44.491Z,2.30
2024-01-05T04:00:13.503Z,2.80
2024-01-05T04:02:41.706Z,2.50
2024-01-05T04:05:10.511Z,2.20
2024-01-05T04:07:40.322Z,2.87
2024-01-05T04:10:08.995Z,3.47
2024-01-05T04:12:36.929Z,2.40
2024-01-05T04:15:05.638Z,2.20
2024-01-05T04:17:33.535Z,2.50
2024-01-05T04:20:01.504Z,2.80
2024-01-05T04:22:32.368Z,3.63
2024-01-05T04:25:01.817Z,2.40
2024-01-05T04:27:29.901Z,2.67
2024-01-05T04:29:57.911Z,2.30
2024-01-05T04:32:26.220Z,2.07
2024-01-05T04:34:55.228Z,2.27
2024-01-05T04:37:24.594Z,2.60
2024-01-05T04:39:52.526Z,1.97
2024-01-05T04:42:21.818Z,2.70
2024-01-05T04:44:50.668Z,2.00
2024-01-05T04:47:19.217Z,2.60
2024-01-05T04:49:47.375Z,2.23
2024-01-05T04:52:15.550Z,2.10
2024-01-05T04:54:43.441Z,4.23
2024-01-05T04:57:11.370Z,2.10
2024-01-05T04:59:42.524Z,2.77
2024-01-05T05:02:10.473Z,2.17
2024-01-05T05:04:38.448Z,2.77
2024-01-05T05:07:07.549Z,2.60
2024-01-05T05:09:35.500Z,2.50
2024-01-05T05:12:03.590Z,2.10
2024-01-05T05:14:31.570Z,3.30
2024-01-05T05:17:00.878Z,2.30
2024-01-05T05:19:29.886Z,2.53
2024-01-05T05:21:57.868Z,2.07
2024-01-05T05:24:25.892Z,2.50
2024-01-05T05:26:53.864Z,2.13
2024-01-05T05:29:21.854Z,2.50
2024-01-05T05:31:49.882Z,2.47
2024-01-05T05:34:19.415Z,2.50
2024-01-05T05:36:47.347Z,2.30
2024-01-05T05:39:15.275Z,2.37
2024-01-05T05:41:43.545Z,2.40
2024-01-05T05:44:11.584Z,2.90
2024-01-05T05:46:40.624Z,2.23
2024-01-05T05:49:08.911Z,2.80
2024-01-05T05:51:38.503Z,3.13
2024-01-05T05:54:06.481Z,2.90
2024-01-05T05:56:34.360Z,2.43
2024-01-05T05:59:02.412Z,2.70
2024-01-05T06:01:30.360Z,3.10
2024-01-05T06:03:58.377Z,2.40
2024-01-05T06:06:27.458Z,2.70
2024-01-05T06:08:56.821Z,2.53
2024-01-05T06:11:27.844Z,2.60
2024-01-05T06:13:56.328Z,2.23
2024-01-05T06:16:24.470Z,2.80
2024-01-05T06:18:52.659Z,3.97
2024-01-05T06:21:20.749Z,3.90
2024-01-05T06:23:50.124Z,3.40
2024-01-05T06:26:20.467Z,3.90
2024-01-05T06:28:49.411Z,3.17
2024-01-05T06:31:17.613Z,2.63
2024-01-05T06:33:45.727Z,2.70
2024-01-05T06:36:13.920Z,2.17
2024-01-05T06:38:41.876Z,3.03
2024-01-05T06:41:09.788Z,2.80
2024-01-05T06:43:39.021Z,2.03
2024-01-05T06:46:07.077Z,2.37
2024-01-05T06:48:35.151Z,2.00
2024-01-05T06:51:03.397Z,2.43
2024-01-05T06:53:31.366Z,2.97
2024-01-05T06:55:59.493Z,1.70
2024-01-05T06:58:29.288Z,2.60
2024-01-05T07:00:59.080Z,2.40
2024-01-05T07:03:27.204Z,2.30
2024-01-05T07:05:55.756Z,1.90
2024-01-05T07:08:23.784Z,2.90
2024-01-05T07:10:51.695Z,2.50
2024-01-05T07:13:19.582Z,2.00
2024-01-05T07:15:47.478Z,1.97
2024-01-05T07:18:16.914Z,2.77
2024-01-05T07:20:45.193Z,2.07
2024-01-05T07:23:13.112Z,2.60
2024-01-05T07:25:41.021Z,1.90
2024-01-05T07:28:09.490Z,2.30
2024-01-05T07:30:38.533Z,2.77
2024-01-05T07:33:06.842Z,1.93
2024-01-05T07:35:38.471Z,3.60
2024-01-05T07:38:06.354Z,5.60
2024-01-05T07:40:34.388Z,6.87
2024-01-05T07:43:02.307Z,5.20
2024-01-05T07:45:30.506Z,4.80
2024-01-05T07:47:59.313Z,6.03
2024-01-05T07:50:27.542Z,5.70
2024-01-05T07:52:56.983Z,4.30
2024-01-05T07:55:25.051Z,3.33
2024-01-05T07:57:57.260Z,3.20
2024-01-05T08:00:26.432Z,2.50
2024-01-05T08:03:02.010Z,2.50
2024-01-05T08:05:30.143Z,2.40
2024-01-05T08:07:59.609Z,2.20
2024-01-05T08:10:27.570Z,2.40
2024-01-05T08:12:56.325Z,2.07
2024-01-05T08:15:24.299Z,1.67
2024-01-05T08:17:52.529Z,2.10
2024-01-05T08:20:20.501Z,2.00
2024-01-05T08:22:48.409Z,2.00
2024-01-05T08:25:19.411Z,2.30
2024-01-05T08:27:48.942Z,2.00
2024-01-05T08:30:17.088Z,2.70
2024-01-05T08:32:45.175Z,1.77
2024-01-05T08:35:13.160Z,1.80
2024-01-05T08:37:41.121Z,2.40
2024-01-05T08:40:10.012Z,2.27
2024-01-05T08:42:39.395Z,2.03
2024-01-05T08:45:11.157Z,1.70
2024-01-05T08:47:42.367Z,2.80
2024-01-05T08:50:11.567Z,2.03
2024-01-05T08:52:42.785Z,2.03
2024-01-05T08:55:12.438Z,2.20
2024-01-05T08:57:41.805Z,1.93
2024-01-05T09:00:11.058Z,2.10
2024-01-05T09:02:39.319Z,1.83
2024-01-05T09:05:11.674Z,2.30
2024-01-05T09:07:40.042Z,2.00
2024-01-05T09:10:09.662Z,2.00
2024-01-05T09:12:38.923Z,2.07
2024-01-05T09:15:10.893Z,1.80
2024-01-05T09:17:39.033Z,2.00
2024-01-05T09:20:09.299Z,2.30
2024-01-05T09:22:38.814Z,3.90
2024-01-05T09:25:12.987Z,2.33
2024-01-05T09:27:41.030Z,2.60
2024-01-05T09:30:10.987Z,2.97
2024-01-05T09:32:39.221Z,3.40
2024-01-05T09:35:09.975Z,3.73
2024-01-05T09:37:38.182Z,2.80
2024-01-05T09:40:07.053Z,2.50
2024-01-05T09:42:35.242Z,3.17
2024-01-05T09:45:04.976Z,2.57
2024-01-05T09:47:40.304Z,2.37
2024-01-05T09:50:10.375Z,3.37
2024-01-05T09:52:38.511Z,3.10
2024-01-05T09:55:07.052Z,2.70
2024-01-05T09:57:35.682Z,2.00
2024-01-05T10:00:05.870Z,2.50
2024-01-05T10:02:44.975Z,2.27
2024-01-05T10:05:18.996Z,2.53
2024-01-05T10:07:46.953Z,2.30
2024-01-05T10:10:15.110Z,2.53
2024-01-05T10:12:43.347Z,3.00
2024-01-05T10:15:13.952Z,2.80
2024-01-05T10:17:43.605Z,2.90
2024-01-05T10:20:17.739Z,3.10
2024-01-05T10:22:47.811Z,2.70
2024-01-05T10:25:17.968Z,3.00
2024-01-05T10:27:49.233Z,2.00
2024-01-05T10:30:34.674Z,2.40
2024-01-05T10:33:09.392Z,2.80
2024-01-05T10:35:37.542Z,2.77
2024-01-05T10:38:07.027Z,2.90
2024-01-05T10:40:35.156Z,2.60
2024-01-05T10:43:11.038Z,2.40
2024-01-05T10:45:40.413Z,2.70
2024-01-05T10:48:15.151Z,2.20
2024-01-05T10:50:45.097Z,1.83
2024-01-05T10:53:14.872Z,2.63
2024-01-05T10:55:44.781Z,2.23
2024-01-05T10:58:13.568Z,2.53
2024-01-05T11:00:42.602Z,2.73
2024-01-05T11:03:15.520Z,2.27
2024-01-05T11:05:49.101Z,2.57
2024-01-05T11:08:31.996Z,2.90
2024-01-05T11:11:12.943Z,2.17
2024-01-05T11:13:58.563Z,2.37
2024-01-05T11:17:08.878Z,2.43
2024-01-05T11:20:00.860Z,2.07
2024-01-05T11:22:32.785Z,2.40
2024-01-05T11:25:01.308Z,2.00
2024-01-05T11:27:31.704Z,1.93
2024-01-05T11:30:00.574Z,1.73
2024-01-05T11:32:37.538Z,2.00
2024-01-05T11:35:43.353Z,1.77
2024-01-05T11:38:28.126Z,2.00
2024-01-05T11:40:56.301Z,2.13
2024-01-05T11:43:36.534Z,1.97
2024-01-05T11:46:04.752Z,2.67
2024-01-05T11:48:52.393Z,1.90
2024-01-05T11:51:22.075Z,1.70
2024-01-05T11:53:51.610Z,2.30
2024-01-05T11:56:22.812Z,4.70
2024-01-05T11:58:52.071Z,2.93
2024-01-05T12:01:21.156Z,3.53
2024-01-05T12:03:53.949Z,2.57
2024-01-05T12:06:23.275Z,2.00
2024-01-05T12:08:51.873Z,1.90
2024-01-05T12:11:22.351Z,1.73
2024-01-05T12:13:50.252Z,2.10
2024-01-05T12:16:18.692Z,2.07
2024-01-05T12:18:49.847Z,2.10
2024-01-05T12:21:23.796Z,2.63
2024-01-05T12:23:54.586Z,1.93
2024-01-05T12:26:23.083Z,2.20
2024-01-05T12:28:51.713Z,2.37
2024-01-05T12:31:20.184Z,1.60
2024-01-05T12:33:48.590Z,1.93
2024-01-05T12:36:28.880Z,2.20
2024-01-05T12:39:08.965Z,2.10
2024-01-05T12:41:36.996Z,2.40
2024-01-05T12:44:08.899Z,2.20
2024-01-05T12:46:44.081Z,1.60
2024-01-05T12:49:24.408Z,2.20
2024-01-05T12:51:57.128Z,2.43
2024-01-05T12:54:26.515Z,1.67
2024-01-05T12:56:55.467Z,2.13
2024-01-05T12:59:26.573Z,2.00
2024-01-05T13:02:02.047Z,1.90
2024-01-05T13:04:39.607Z,2.10
2024-01-05T13:07:13.072Z,1.63
2024-01-05T13:09:41.795Z,2.07
2024-01-05T13:12:10.477Z,1.97
2024-01-05T13:14:38.445Z,1.63
2024-01-05T13:17:07.317Z,1.60
2024-01-05T13:19:37.726Z,1.70
2024-01-05T13:22:10.656Z,1.60
2024-01-05T13:24:43.139Z,2.00
2024-01-05T13:27:13.803Z,2.53
2024-01-05T13:29:41.832Z,1.60
2024-01-05T13:32:10.041Z,2.10
2024-01-05T13:34:38.273Z,1.70
2024-01-05T13:37:06.435Z,1.90
2024-01-05T13:39:40.186Z,1.80
2024-01-05T13:42:10.066Z,1.10
2024-01-05T13:44:37.978Z,1.80
2024-01-05T13:47:05.861Z,1.80
2024-01-05T13:49:34.002Z,1.70
2024-01-05T13:52:04.258Z,1.53
2024-01-05T13:54:35.101Z,1.60
2024-01-05T13:57:04.937Z,1.30
2024-01-05T13:59:34.974Z,2.33
2024-01-05T14:02:06.694Z,1.47
2024-01-05T14:04:34.936Z,1.77
2024-01-05T14:07:03.979Z,2.07
2024-01-05T14:09:38.072Z,1.80
2024-01-05T14:12:06.852Z,1.50
2024-01-05T14:14:36.573Z,1.60
2024-01-05T14:17:07.159Z,1.87
2024-01-05T14:19:35.366Z,1.20
2024-01-05T14:22:06.779Z,1.90
2024-01-05T14:24:35.818Z,2.30
2024-01-05T14:27:04.352Z,1.83
2024-01-05T14:29:32.704Z,3.07
2024-01-05T14:32:04.312Z,2.53
2024-01-05T14:34:33.200Z,2.07
2024-01-05T14:37:01.448Z,1.67
2024-01-05T14:39:29.884Z,1.77
2024-01-05T14:41:57.932Z,1.73
2024-01-05T14:44:26.704Z,1.70
2024-01-05T14:46:55.482Z,2.33
2024-01-05T14:49:24.864Z,1.83
2024-01-05T14:51:56.453Z,1.97
2024-01-05T14:54:25.273Z,1.70
2024-01-05T14:56:53.245Z,2.40
2024-01-05T14:59:22.191Z,1.77
2024-01-05T15:01:50.239Z,2.03
2024-01-05T15:04:19.395Z,2.37
2024-01-05T15:06:53.001Z,2.30
2024-01-05T15:09:21.119Z,2.17
2024-01-05T15:11:49.218Z,1.57
2024-01-05T15:14:17.273Z,1.57
2024-01-05T15:16:50.723Z,1.97
2024-01-05T15:19:19.247Z,1.90
2024-01-05T15:21:47.686Z,2.10
2024-01-05T15:24:20.287Z,1.63
2024-01-05T15:26:48.890Z,1.80
2024-01-05T15:29:17.060Z,2.40
2024-01-05T15:31:47.238Z,1.77
2024-01-05T15:34:15.329Z,1.80
2024-01-05T15:36:43.319Z,2.10
2024-01-05T15:39:12.440Z,1.80
2024-01-05T15:41:41.925Z,1.87
2024-01-05T15:44:09.881Z,1.60
2024-01-05T15:46:42.901Z,1.67
2024-01-05T15:49:11.164Z,1.73
2024-01-05T15:51:39.252Z,1.80
2024-01-05T15:54:07.889Z,2.10
2024-01-05T15:56:36.883Z,1.93
2024-01-05T15:59:06.358Z,2.07
2024-01-05T16:01:34.386Z,2.23
2024-01-05T16:04:02.771Z,1.70
2024-01-05T16:06:34.012Z,3.60
2024-01-05T16:09:02.250Z,2.10
2024-01-05T16:11:31.525Z,3.10
2024-01-05T16:14:01.425Z,6.97
2024-01-05T16:16:30.820Z,5.80
2024-01-05T16:19:01.646Z,4.40
2024-01-05T16:21:31.814Z,3.03
2024-01-05T16:24:02.892Z,4.40
2024-01-05T16:26:31.321Z,3.23
2024-01-05T16:28:59.240Z,2.40
2024-01-05T16:31:27.319Z,3.73
2024-01-05T16:33:56.723Z,3.60
2024-01-05T16:36:25.494Z,4.00
2024-01-05T16:38:53.462Z,4.30
2024-01-05T16:41:24.875Z,4.10
2024-01-05T16:43:53.220Z,5.07
2024-01-05T16:46:22.227Z,4.73
2024-01-05T16:48:53.724Z,3.80
2024-01-05T16:51:24.134Z,5.40
2024-01-05T16:53:54.143Z,3.43
2024-01-05T16:56:28.233Z,2.70
2024-01-05T16:58:57.825Z,2.90
2024-01-05T17:01:26.550Z,2.50
2024-01-05T17:03:56.266Z,2.50
2024-01-05T17:06:26.848Z,2.00
2024-01-05T17:08:55.067Z,2.13
2024-01-05T17:11:26.420Z,2.43
2024-01-05T17:13:54.637Z,2.00
2024-01-05T17:16:22.565Z,1.80
2024-01-05T17:18:51.476Z,1.90
2024-01-05T17:21:19.609Z,2.50
2024-01-05T17:23:51.914Z,1.80
2024-01-05T17:26:20.920Z,2.63
2024-01-05T17:28:49.100Z,2.00
2024-01-05T17:31:17.425Z,1.90
2024-01-05T17:33:45.675Z,2.30
2024-01-05T17:36:14.683Z,2.00
2024-01-05T17:38:43.811Z,2.50
2024-01-05T17:41:13.233Z,2.23
2024-01-05T17:43:42.307Z,1.70
2024-01-05T17:46:10.298Z,2.10
2024-01-05T17:48:38.494Z,2.80
2024-01-05T17:51:06.828Z,2.57
2024-01-05T17:53:34.892Z,2.20
2024-01-05T17:56:02.939Z,2.30
2024-01-05T17:58:32.227Z,2.57
2024-01-05T18:01:00.225Z,2.73
2024-01-05T18:03:28.486Z,2.30
2024-01-05T18:05:56.592Z,2.47
2024-01-05T18:08:24.532Z,2.20
2024-01-05T18:10:52.457Z,2.70
2024-01-05T18:13:20.394Z,2.20
2024-01-05T18:15:49.741Z,2.30
2024-01-05T18:18:18.049Z,2.30
2024-01-05T18:20:46.120Z,3.23
2024-01-05T18:23:17.515Z,2.43
2024-01-05T18:25:47.303Z,2.63
2024-01-05T18:28:16.574Z,2.33
2024-01-05T18:30:44.851Z,2.20
2024-01-05T18:33:14.240Z,2.60
2024-01-05T18:35:42.163Z,2.70
2024-01-05T18:38:11.839Z,2.40
2024-01-05T18:40:39.977Z,2.50
2024-01-05T18:43:07.921Z,2.97
2024-01-05T18:45:35.875Z,2.80
2024-01-05T18:48:04.212Z,2.90
2024-01-05T18:50:33.523Z,3.37
2024-01-05T18:53:01.480Z,2.70
2024-01-05T18:55:29.549Z,2.43
2024-01-05T18:57:57.452Z,3.00
2024-01-05T19:00:25.666Z,2.20
2024-01-05T19:02:53.857Z,2.83
2024-01-05T19:05:23.026Z,2.80
2024-01-05T19:07:59.311Z,3.50
2024-01-05T19:10:30.699Z,3.40
2024-01-05T19:13:00.667Z,2.70
2024-01-05T19:15:28.663Z,2.73
2024-01-05T19:17:56.734Z,2.93
2024-01-05T19:20:25.002Z,2.40
2024-01-05T19:22:53.149Z,2.47
2024-01-05T19:25:22.645Z,2.70
2024-01-05T19:27:50.693Z,3.30
2024-01-05T19:30:28.235Z,3.20
2024-01-05T19:32:57.929Z,3.70
2024-01-05T19:35:27.902Z,5.03
2024-01-05T19:37:56.707Z,4.50
2024-01-05T19:40:26.011Z,3.50
2024-01-05T19:42:54.434Z,3.50
2024-01-05T19:45:23.029Z,4.03
2024-01-05T19:47:53.126Z,4.57
2024-01-05T19:50:21.381Z,3.80
2024-01-05T19:52:50.558Z,4.50
2024-01-05T19:55:20.421Z,4.10
2024-01-05T19:57:50.545Z,4.47
2024-01-05T20:00:19.208Z,4.77
2024-01-05T20:02:49.766Z,5.50
2024-01-05T20:05:17.704Z,4.67
2024-01-05T20:07:46.568Z,13.30
2024-01-05T20:10:16.810Z,8.77
2024-01-05T20:12:47.000Z,6.50
2024-01-05T20:15:19.428Z,5.50
2024-01-05T20:17:50.870Z,7.40
2024-01-05T20:20:19.881Z,10.10
2024-01-05T20:22:47.991Z,8.20
2024-01-05T20:25:17.122Z,8.30
2024-01-05T20:27:45.203Z,9.30
2024-01-05T20:30:15.954Z,8.40
2024-01-05T20:32:44.115Z,8.70
2024-01-05T20:35:12.167Z,7.60
2024-01-05T20:37:40.398Z,7.10
2024-01-05T20:40:10.432Z,4.60
2024-01-05T20:42:38.915Z,7.13
2024-01-05T20:45:12.130Z,6.20
2024-01-05T20:47:41.585Z,4.20
2024-01-05T20:50:10.497Z,3.40
2024-01-05T20:52:38.694Z,2.50
2024-01-05T20:55:08.625Z,4.37
2024-01-05T20:57:37.900Z,3.33
2024-01-05T21:00:07.230Z,3.40
2024-01-05T21:02:35.328Z,2.83
2024-01-05T21:05:05.004Z,3.00
2024-01-05T21:07:32.993Z,2.70
2024-01-05T21:10:01.987Z,2.33
2024-01-05T21:12:30.094Z,2.10
2024-01-05T21:14:58.225Z,2.07
2024-01-05T21:17:26.179Z,2.10
2024-01-05T21:19:54.326Z,2.60
2024-01-05T21:22:25.131Z,2.37
2024-01-05T21:24:53.163Z,7.27
2024-01-05T21:27:21.154Z,3.43
2024-01-05T21:29:49.337Z,2.67
2024-01-05T21:32:20.834Z,2.73
2024-01-05T21:34:49.701Z,2.80
2024-01-05T21:37:18.763Z,2.53
2024-01-05T21:39:49.358Z,2.53
2024-01-05T21:42:18.158Z,2.50
2024-01-05T21:44:46.412Z,2.20
2024-01-05T21:47:14.425Z,2.20
2024-01-05T21:49:42.482Z,2.00
2024-01-05T21:52:10.937Z,2.20
2024-01-05T21:54:39.069Z,1.87
2024-01-05T21:57:08.479Z,2.00
2024-01-05T21:59:36.438Z,2.20
2024-01-05T22:02:04.344Z,1.97
2024-01-05T22:04:33.809Z,2.43
2024-01-05T22:07:02.850Z,2.10
2024-01-05T22:09:32.079Z,2.70
2024-01-05T22:12:01.949Z,1.80
2024-01-05T22:14:31.179Z,3.30
2024-01-05T22:17:01.726Z,1.80
2024-01-05T22:19:30.861Z,2.40
2024-01-05T22:21:59.148Z,2.43
2024-01-05T22:24:30.156Z,2.40
2024-01-05T22:26:58.217Z,2.07
2024-01-05T22:29:26.283Z,2.42
2024-01-05T22:31:55.782Z,2.60
2024-01-05T22:34:24.441Z,2.20
2024-01-05T22:36:52.591Z,2.10
2024-01-05T22:39:21.627Z,2.30
2024-01-05T22:41:49.699Z,2.50
2024-01-05T22:44:17.782Z,2.47
2024-01-05T22:46:45.839Z,3.80
2024-01-05T22:49:15.493Z,3.37
2024-01-05T22:51:43.684Z,4.15
2024-01-05T22:54:11.772Z,9.00
2024-01-05T22:56:39.795Z,5.80
2024-01-05T22:59:07.725Z,16.80
2024-01-05T23:01:35.831Z,11.80
2024-01-05T23:04:04.078Z,12.20
2024-01-05T23:06:33.575Z,4.13
2024-01-05T23:09:01.584Z,3.50
2024-01-05T23:11:29.632Z,7.85
2024-01-05T23:13:57.703Z,10.33
2024-01-05T23:16:25.785Z,7.27
2024-01-05T23:18:54.020Z,3.27
2024-01-05T23:21:22.563Z,3.07
2024-01-05T23:23:51.931Z,3.20
2024-01-05T23:26:20.828Z,2.70
2024-01-05T23:28:51.015Z,2.47
2024-01-05T23:31:19.441Z,2.63
2024-01-05T23:34:00.808Z,5.03
2024-01-05T23:36:37.489Z,2.95
2024-01-05T23:39:06.897Z,2.92
2024-01-05T23:41:34.967Z,2.22
2024-01-05T23:44:02.874Z,1.98
2024-01-05T23:46:32.029Z,2.50
2024-01-05T23:49:00.034Z,2.20
2024-01-05T23:51:28.050Z,2.70
2024-01-05T23:53:56.376Z,2.33
2024-01-05T23:56:25.635Z,1.80
2024-01-05T23:58:53.515Z,2.45
